Latest Weather Observations for Narrabri

IDN60801

Issued at 9:02 am EDT Monday 30 March 2015 (issued every 30 minutes, with the page automatically refreshed every 10 minutes)

About weather observations | Map of weather stations | Latest weather observations for NSW | Other Formats
Station Details ID: 054038 Name: NARRABRI AIRPORT AWS Lat: -30.32 Lon: 149.83 Height: 229.02 m
Data from the previous 72 hours. | See also: Recent months at Narrabri
Date/Time
EDT
Temp
°C
App
Temp
°C
Dew
Point
Rel
Hum
%
Delta-T
°C
Wind Press
QNH
hPa
Press
MSL
hPa
Rain
since 9 am
mm
Dir
 
Spd
km/h
Gust
km/h
Spd
kts
Gust
kts
30/09:00am 15.8 - - - - SSE 19 26 10 14 1024.7 1023.7 10.0
30/08:30am 16.1 14.0 15.3 95 0.5 SW 20 33 11 18 1024.7 1023.7 0.8
30/08:00am 18.5 18.0 13.8 74 2.7 SSW 9 13 5 7 1023.2 1022.2 0.0
30/07:30am 18.3 18.3 14.2 77 2.4 S 7 9 4 5 1022.3 1021.2 0.0
30/07:00am 18.4 19.2 13.7 74 2.7 S 2 7 1 4 1022.3 1021.2 0.0
30/06:30am 18.5 18.3 12.9 70 3.2 ESE 6 9 3 5 1022.0 1020.9 0.0
30/06:00am 18.2 17.8 13.1 72 2.9 SSE 7 7 4 4 1021.7 1020.6 0.0
30/05:30am 18.1 18.2 13.8 76 2.5 SW 6 9 3 5 1021.2 1020.1 0.0
30/05:00am 18.2 19.1 14.1 77 2.4 W 2 7 1 4 1020.7 1019.7 0.0
30/04:30am 18.3 17.9 13.0 71 3.0 N 7 13 4 7 1020.4 1019.4 0.0
30/04:00am 17.8 18.7 13.9 78 2.2 SSW 2 6 1 3 1020.1 1019.1 0.0
30/03:30am 18.0 18.5 15.1 83 1.7 E 6 7 3 4 1019.9 1018.9 0.0
30/03:00am 17.5 18.6 13.6 78 2.2 CALM 0 6 0 3 1020.2 1019.2 0.0
30/02:30am 18.6 17.1 11.9 65 3.7 SSE 11 13 6 7 1020.2 1019.2 0.0
30/02:00am 16.8 17.3 11.7 72 2.8 CALM 0 0 0 0 1020.5 1019.5 0.0
30/01:30am 17.3 17.8 11.6 69 3.1 CALM 0 7 0 4 1020.4 1019.4 0.0
30/01:00am 17.5 16.8 11.5 68 3.3 ESE 6 9 3 5 1020.5 1019.5 0.0
30/12:30am 18.5 18.5 12.3 67 3.5 SE 4 7 2 4 1020.7 1019.7 0.0
30/12:00am 17.7 17.1 12.4 71 3.0 ENE 7 9 4 5 1021.0 1019.9 0.0
 
Date/Time
EDT
Temp
°C
App
Temp
°C
Dew
Point
Rel
Hum
%
Delta-T
°C
Wind Press
QNH
hPa
Press
MSL
hPa
Rain
since 9 am
mm
Dir
 
Spd
km/h
Gust
km/h
Spd
kts
Gust
kts
29/11:30pm 18.7 17.9 11.8 64 3.8 ESE 7 13 4 7 1021.0 1019.9 0.0
29/11:00pm 21.7 20.2 10.5 49 6.2 SE 9 13 5 7 1021.2 1020.1 0.0
29/10:30pm 21.1 20.1 10.9 52 5.7 S 7 11 4 6 1021.4 1020.3 0.0
29/10:00pm 22.3 20.8 12.0 52 5.8 ESE 11 15 6 8 1021.5 1020.4 0.0
29/09:30pm 22.7 20.5 10.8 47 6.6 E 13 17 7 9 1021.2 1020.1 0.0
29/09:00pm 22.7 20.1 10.8 47 6.6 E 15 17 8 9 1020.7 1019.7 0.0
29/08:30pm 22.4 20.2 10.9 48 6.4 E 13 15 7 8 1020.5 1019.5 0.0
29/08:00pm 23.5 21.6 10.6 44 7.2 ENE 11 11 6 6 1020.2 1019.2 0.0
29/07:30pm 23.2 22.3 11.3 47 6.7 E 7 9 4 5 1019.9 1018.9 0.0
29/07:00pm 25.3 24.2 10.7 40 8.2 NE 7 9 4 5 1019.8 1018.8 0.0
29/06:30pm 28.6 27.0 8.8 29 11.0 N 7 11 4 6 1019.6 1018.6 0.0
29/06:00pm 29.7 27.7 8.7 27 11.7 WNW 9 15 5 8 1019.4 1018.4 0.0
29/05:30pm 30.1 28.2 9.1 27 11.8 NW 9 13 5 7 1019.1 1018.0 0.0
29/05:00pm 30.2 28.7 9.1 27 11.9 WNW 7 13 4 7 1019.0 1017.9 0.0
29/04:30pm 30.5 29.4 8.3 25 12.4 WSW 4 7 2 4 1019.0 1017.9 0.0
29/04:00pm 30.1 26.7 9.1 27 11.8 NW 17 24 9 13 1019.5 1018.5 0.0
29/03:30pm 30.1 28.3 9.6 28 11.6 NW 9 20 5 11 1019.6 1018.6 0.0
29/03:00pm 29.4 26.5 9.5 29 11.2 N 15 26 8 14 1020.2 1019.2 0.0
29/02:30pm 29.1 25.5 9.8 30 10.9 NNW 19 28 10 15 1020.6 1019.6 0.0
29/02:00pm 28.0 25.1 9.8 32 10.2 N 15 24 8 13 1021.1 1020.0 0.0
29/01:30pm 28.3 24.9 10.5 33 10.2 NW 19 26 10 14 1021.7 1020.6 0.0
29/01:00pm 27.9 25.1 13.1 40 8.8 N 20 32 11 17 1022.1 1021.0 0.0
29/12:30pm 27.9 25.1 14.2 43 8.3 NNW 22 33 12 18 1022.4 1021.3 0.0
29/12:00pm 27.4 23.4 13.0 41 8.5 N 26 35 14 19 1022.8 1021.7 0.0
29/11:30am 26.4 22.4 14.2 47 7.3 N 28 39 15 21 1022.7 1021.6 0.0
29/11:00am 26.4 23.4 15.8 52 6.5 N 26 37 14 20 1022.8 1021.7 0.0
29/10:30am 24.9 20.7 14.7 53 6.1 N 30 39 16 21 1023.0 1021.9 0.0
29/10:00am 24.2 20.5 14.9 56 5.6 N 28 41 15 22 1022.9 1021.8 0.0
29/09:30am 23.6 20.3 15.1 59 5.1 N 26 33 14 18 1022.9 1021.8 0.0
29/09:21am 23.2 20.5 14.7 58 5.1 N 22 35 12 19 1023.0 1021.9 0.0
29/09:00am 20.1 20.2 12.8 63 4.2 N 4 11 2 6 1023.0 1021.9 0.0
29/08:30am 15.3 15.0 8.8 65 3.4 CALM 0 0 0 0 1022.9 1021.8 0.0
29/08:00am 12.7 12.4 8.8 77 2.0 CALM 0 7 0 4 1022.4 1021.3 0.0
29/07:30am 11.3 10.9 8.2 81 1.5 CALM 0 6 0 3 1022.0 1020.9 0.0
29/07:00am 11.2 9.1 6.7 74 2.1 NE 7 13 4 7 1021.6 1020.5 0.0
29/06:30am 10.7 8.4 5.9 72 2.3 S 7 11 4 6 1021.2 1020.1 0.0
29/06:00am 10.5 8.2 5.9 73 2.1 NE 7 9 4 5 1020.5 1019.5 0.0
29/05:30am 11.6 10.2 5.3 65 2.9 E 2 7 1 4 1020.0 1019.0 0.0
29/05:00am 14.0 11.6 4.3 52 4.5 SSE 6 11 3 6 1019.9 1018.9 0.0
29/04:30am 14.2 12.2 4.5 52 4.5 SE 4 7 2 4 1019.8 1018.8 0.0
29/04:00am 13.6 11.2 4.2 53 4.3 SSE 6 7 3 4 1019.6 1018.6 0.0
29/03:30am 12.6 10.4 5.5 62 3.4 SE 6 11 3 6 1019.6 1018.6 0.0
29/03:00am 12.2 11.3 6.0 66 2.9 CALM 0 0 0 0 1019.8 1018.8 0.0
29/02:30am 12.6 11.4 6.4 66 3.0 SSE 2 9 1 5 1019.9 1018.9 0.0
29/02:00am 13.2 10.9 4.6 56 4.0 SE 6 11 3 6 1020.1 1019.1 0.0
29/01:30am 13.1 12.1 5.5 60 3.6 CALM 0 0 0 0 1020.1 1019.1 0.0
29/01:00am 14.4 12.6 5.2 54 4.4 SE 4 9 2 5 1020.2 1019.2 0.0
29/12:30am 14.1 13.5 7.6 65 3.2 CALM 0 0 0 0 1020.3 1019.3 0.0
29/12:00am 14.6 13.6 9.0 69 2.9 ESE 4 7 2 4 1020.3 1019.3 0.0
 
Date/Time
EDT
Temp
°C
App
Temp
°C
Dew
Point
Rel
Hum
%
Delta-T
°C
Wind Press
QNH
hPa
Press
MSL
hPa
Rain
since 9 am
mm
Dir
 
Spd
km/h
Gust
km/h
Spd
kts
Gust
kts
28/11:30pm 15.0 12.2 6.8 58 4.1 E 11 15 6 8 1020.4 1019.4 0.0
28/11:00pm 15.2 14.2 7.2 59 4.0 ESE 2 6 1 3 1020.6 1019.6 0.0
28/10:30pm 16.8 13.7 5.4 47 5.5 E 11 13 6 7 1020.4 1019.4 0.0
28/10:00pm 16.6 15.2 5.6 48 5.3 S 2 7 1 4 1020.7 1019.7 0.0
28/09:30pm 18.5 14.8 4.7 40 6.7 E 13 15 7 8 1020.6 1019.6 0.0
28/09:00pm 18.9 15.8 5.7 42 6.5 E 11 13 6 7 1020.5 1019.5 0.0
28/08:30pm 19.8 16.3 5.5 39 7.1 ENE 13 15 7 8 1019.8 1018.8 0.0
28/08:00pm 20.4 17.8 4.0 34 7.9 NE 7 9 4 5 1019.3 1018.3 0.0
28/07:30pm 21.1 18.6 4.6 34 8.1 NE 7 9 4 5 1019.2 1018.1 0.0
28/07:00pm 23.0 20.0 4.0 29 9.4 NNE 9 9 5 5 1018.8 1017.7 0.0
28/06:30pm 26.0 24.2 7.1 30 10.1 ENE 6 9 3 5 1018.6 1017.5 0.0
28/06:00pm 27.8 25.5 2.8 20 12.5 NNE 4 7 2 4 1018.6 1017.5 0.0
28/05:30pm 28.2 26.5 1.7 18 13.0 CALM 0 0 0 0 1018.6 1017.5 0.0
28/05:00pm 28.3 25.2 0.1 16 13.4 S 6 13 3 7 1018.9 1017.8 0.0
28/04:30pm 29.0 25.5 -1.2 14 14.2 WNW 7 20 4 11 1019.0 1017.9 0.0
28/04:00pm 28.1 24.4 -0.1 16 13.4 S 9 15 5 8 1019.3 1018.3 0.0
28/03:30pm 28.2 25.3 -0.9 15 13.6 W 4 11 2 6 1019.5 1018.5 0.0
28/03:00pm 27.4 24.1 -1.5 15 13.3 NE 6 9 3 5 1019.7 1018.7 0.0
28/02:30pm 27.6 24.2 -0.5 16 13.2 WSW 7 11 4 6 1020.1 1019.1 0.0
28/02:00pm 26.8 23.6 -0.3 17 12.7 NNW 6 11 3 6 1020.5 1019.5 0.0
28/01:30pm 26.4 23.2 0.9 19 12.2 SSE 7 15 4 8 1021.0 1019.9 0.0
28/01:00pm 25.5 22.0 -1.3 17 12.2 S 7 13 4 7 1021.3 1020.2 0.0
28/12:30pm 24.8 22.0 2.9 24 10.7 SSW 7 13 4 7 1021.7 1020.6 0.0
28/12:00pm 24.1 20.3 4.0 27 10.0 S 13 17 7 9 1022.3 1021.2 0.0
28/11:30am 23.3 19.2 4.3 29 9.5 S 15 19 8 10 1022.6 1021.5 0.0
28/11:00am 22.3 18.0 5.3 33 8.5 SSE 17 24 9 13 1022.7 1021.6 0.0
28/10:30am 20.6 15.8 4.6 35 7.9 SSE 19 24 10 13 1022.9 1021.8 0.0
28/10:00am 20.1 15.6 6.1 40 7.0 SSE 19 26 10 14 1022.8 1021.7 0.0
28/09:30am 18.2 13.4 4.7 41 6.5 S 19 26 10 14 1022.8 1021.7 0.0
28/09:00am 16.7 13.0 4.4 44 5.8 SSE 13 20 7 11 1022.5 1021.4 0.0
28/08:30am 14.7 10.2 4.1 49 4.9 S 17 22 9 12 1022.3 1021.2 0.0
28/08:00am 13.6 8.6 3.4 50 4.6 SSE 19 24 10 13 1021.7 1020.6 0.0
28/07:30am 12.3 7.2 3.0 53 4.1 SSE 19 26 10 14 1021.3 1020.2 0.0
28/07:00am 12.1 7.4 3.1 54 4.0 SSE 17 22 9 12 1021.2 1020.1 0.0
28/06:30am 12.1 7.0 3.3 55 3.9 SSE 19 24 10 13 1021.0 1019.9 0.0
28/06:00am 11.4 7.7 4.4 62 3.2 S 13 20 7 11 1020.5 1019.5 0.0
28/05:30am 11.6 7.9 4.6 62 3.2 S 13 20 7 11 1020.2 1019.2 0.0
28/05:00am 12.3 8.7 5.0 61 3.4 S 13 19 7 10 1020.1 1019.1 0.0
28/04:30am 11.3 8.3 6.0 70 2.5 S 11 15 6 8 1020.1 1019.1 0.0
28/04:00am 12.1 11.0 5.3 63 3.2 CALM 0 6 0 3 1020.2 1019.2 0.0
28/03:30am 14.2 11.1 3.4 48 4.9 SSE 9 13 5 7 1020.3 1019.3 0.0
28/03:00am 15.5 12.0 3.6 45 5.5 SE 11 17 6 9 1020.7 1019.7 0.0
28/02:30am 16.1 12.5 3.2 42 6.0 SE 11 17 6 9 1021.0 1019.9 0.0
28/02:00am 16.9 13.3 2.9 39 6.4 SE 11 19 6 10 1021.1 1020.0 0.0
28/01:30am 16.6 13.3 4.3 44 5.8 SE 11 20 6 11 1021.3 1020.2 0.0
28/01:00am 13.3 11.3 7.3 67 2.9 SE 7 11 4 6 1021.4 1020.3 0.0
28/12:30am 13.1 10.0 5.5 60 3.6 ESE 11 15 6 8 1021.4 1020.3 0.0
28/12:00am 13.2 11.0 6.3 63 3.3 ESE 7 11 4 6 1021.4 1020.3 0.0
 
Date/Time
EDT
Temp
°C
App
Temp
°C
Dew
Point
Rel
Hum
%
Delta-T
°C
Wind Press
QNH
hPa
Press
MSL
hPa
Rain
since 9 am
mm
Dir
 
Spd
km/h
Gust
km/h
Spd
kts
Gust
kts
27/11:30pm 13.5 11.4 6.6 63 3.4 SE 7 11 4 6 1021.4 1020.3 0.0
27/11:00pm 13.3 12.6 8.6 73 2.4 E 2 9 1 5 1021.5 1020.4 0.0
27/10:30pm 14.1 12.9 8.1 67 3.0 ESE 4 7 2 4 1021.2 1020.1 0.0
27/10:00pm 16.7 15.6 5.0 46 5.6 CALM 0 0 0 0 1021.2 1020.1 0.0
27/09:30pm 17.8 15.5 4.7 42 6.3 SW 6 7 3 4 1021.1 1020.0 0.0
27/09:00pm 18.5 16.1 5.4 42 6.4 SSW 7 9 4 5 1020.9 1019.8 0.0
27/08:30pm 19.0 17.0 6.1 43 6.5 S 6 9 3 5 1020.5 1019.5 0.0
27/08:00pm 20.9 17.6 2.7 30 8.6 ESE 9 9 5 5 1019.8 1018.8 0.0
27/07:30pm 21.4 18.5 4.5 33 8.3 ESE 9 11 5 6 1019.5 1018.5 0.0
27/07:00pm 22.2 19.0 3.3 29 9.1 ESE 9 11 5 6 1019.3 1018.3 0.0
27/06:30pm 25.0 21.9 1.2 21 11.3 ESE 7 9 4 5 1019.1 1018.0 0.0
27/06:00pm 25.4 21.4 0.8 20 11.6 ESE 11 15 6 8 1019.0 1017.9 0.0
27/05:30pm 26.5 23.9 1.0 19 12.2 S 4 13 2 7 1018.7 1017.6 0.0
27/05:00pm 26.2 22.7 1.5 20 11.9 ESE 9 15 5 8 1018.8 1017.7 0.0
27/04:30pm 26.1 22.2 1.4 20 11.9 E 11 15 6 8 1018.9 1017.8 0.0
27/04:00pm 26.0 22.9 1.3 20 11.8 SSE 7 15 4 8 1019.3 1018.3 0.0
27/03:30pm 25.6 22.4 1.0 20 11.7 S 7 15 4 8 1019.6 1018.6 0.0
27/03:00pm 24.9 21.3 0.4 20 11.4 SE 9 17 5 9 1020.0 1019.0 0.0
27/02:30pm 24.4 20.6 1.9 23 10.8 SE 11 20 6 11 1020.4 1019.4 0.0
27/02:00pm 23.8 19.8 0.8 22 10.7 ESE 11 24 6 13 1021.0 1019.9 0.0
27/01:30pm 23.2 18.4 0.3 22 10.6 S 15 22 8 12 1021.4 1020.3 0.0
27/01:00pm 22.2 16.9 -0.5 22 10.2 SSE 17 26 9 14 1022.0 1020.9 0.0
27/12:30pm 21.6 16.3 -0.4 23 9.9 SSE 17 24 9 13 1022.5 1021.4 0.0
27/12:00pm 21.2 15.6 1.0 26 9.3 SSE 20 30 11 16 1022.9 1021.8 0.0
27/11:30am 20.1 14.0 0.5 27 8.9 S 22 32 12 17 1023.1 1022.1 0.0
27/11:00am 19.6 13.8 -0.4 26 8.8 SSE 20 32 11 17 1023.1 1022.1 0.0
27/10:30am 18.1 12.0 0.7 31 7.8 SSE 22 33 12 18 1023.2 1022.2 0.0
27/10:00am 16.9 10.9 1.0 34 7.0 SSE 22 32 12 17 1023.2 1022.2 0.0
27/09:30am 16.0 10.6 1.0 36 6.6 SSE 19 26 10 14 1023.1 1022.1 0.0

Other Formats:

Comma delimited format used in spreadsheet applications
http://www.bom.gov.au/fwo/IDN60801/IDN60801.95734.axf

JavaScript Object Notation format (JSON) in row-major order
http://www.bom.gov.au/fwo/IDN60801/IDN60801.95734.json